Time;durP1;ratioP1;P1;durP2;ratioP2;P2;SDS_P1;SDS_P2;PMS_P1;PMS_P2;Temp;Humidity;BMP_temperature;BMP_pressure;BME280_temperature;BME280_humidity;BME280_pressure;Samples;Min_cycle;Max_cycle;Signal;HPM_P1;HPM_P2
2021/12/13 00:00:19;;;;;;;8.00;5.27;;;7.60;99.90;;;;;;5030768;28;20534;-87
2021/12/13 00:02:55;;;;;;;5.53;4.90;;;7.60;99.90;;;;;;5032994;28;20446;-89
2021/12/13 00:05:26;;;;;;;6.70;4.60;;;7.40;99.90;;;;;;5021634;28;20502;-88
2021/12/13 00:07:57;;;;;;;7.53;5.50;;;7.50;99.90;;;;;;5025959;28;21013;-90
2021/12/13 00:10:32;;;;;;;6.20;5.27;;;7.40;99.90;;;;;;5016318;28;20996;-89
2021/12/13 00:13:03;;;;;;;9.13;5.53;;;7.40;99.90;;;;;;5014449;28;20442;-89
2021/12/13 00:15:34;;;;;;;6.20;4.90;;;7.50;99.90;;;;;;5017434;28;20442;-90
2021/12/13 00:18:06;;;;;;;8.13;5.17;;;7.40;99.90;;;;;;5014048;28;20462;-91
2021/12/13 00:20:44;;;;;;;11.23;5.50;;;7.40;99.90;;;;;;5009861;28;20470;-90
2021/12/13 00:23:19;;;;;;;6.20;5.60;;;7.40;99.90;;;;;;5010486;28;20529;-90
2021/12/13 00:25:49;;;;;;;7.53;5.70;;;7.40;99.90;;;;;;5013142;28;20441;-90
2021/12/13 00:28:20;;;;;;;8.07;5.80;;;7.40;99.90;;;;;;5010903;28;20474;-90
2021/12/13 00:31:10;;;;;;;12.07;5.67;;;7.40;99.90;;;;;;5011701;28;20446;-90
2021/12/13 00:33:46;;;;;;;8.40;5.10;;;7.40;99.90;;;;;;5009973;28;20530;-89
2021/12/13 00:36:17;;;;;;;7.90;4.97;;;7.40;99.90;;;;;;5013171;28;20444;-89
2021/12/13 00:38:49;;;;;;;5.63;5.00;;;7.30;99.90;;;;;;5028505;28;20524;-90
2021/12/13 00:41:21;;;;;;;6.70;5.20;;;7.30;99.90;;;;;;5011739;28;20478;-90
2021/12/13 00:43:53;;;;;;;13.27;5.13;;;7.30;99.90;;;;;;5011794;28;20820;-90
2021/12/13 00:46:22;;;;;;;7.30;5.80;;;7.20;99.90;;;;;;5009631;28;20450;-90
2021/12/13 00:48:55;;;;;;;6.53;5.33;;;7.30;99.90;;;;;;5009204;28;20474;-90
2021/12/13 00:51:26;;;;;;;7.50;5.90;;;7.30;99.90;;;;;;5013040;28;20434;-90
2021/12/13 00:53:55;;;;;;;7.90;5.50;;;7.20;99.90;;;;;;5010419;28;20450;-91
2021/12/13 00:56:55;;;;;;;10.90;5.57;;;7.20;99.90;;;;;;5031448;28;20455;-90
2021/12/13 00:59:27;;;;;;;6.70;5.60;;;7.20;99.90;;;;;;5022478;28;20447;-90
2021/12/13 01:01:58;;;;;;;9.17;5.87;;;7.20;99.90;;;;;;5020179;28;20446;-89
2021/12/13 01:04:55;;;;;;;7.80;5.57;;;7.20;99.90;;;;;;5031668;28;20460;-89
2021/12/13 01:07:55;;;;;;;10.83;7.30;;;7.30;99.90;;;;;;5012763;28;20470;-89
2021/12/13 01:11:10;;;;;;;9.50;6.90;;;7.20;99.90;;;;;;5012615;28;20458;-90
2021/12/13 01:14:01;;;;;;;14.30;7.17;;;7.20;99.90;;;;;;5024093;28;20454;-90
2021/12/13 01:16:48;;;;;;;10.43;7.63;;;7.10;99.90;;;;;;5011830;28;20438;-90
2021/12/13 01:19:29;;;;;;;11.63;8.07;;;7.10;99.90;;;;;;5011646;28;20445;-89
2021/12/13 01:22:20;;;;;;;8.03;7.20;;;7.00;99.90;;;;;;5014526;28;20489;-90
2021/12/13 01:25:16;;;;;;;11.27;8.47;;;7.00;99.90;;;;;;5021666;28;20446;-90
2021/12/13 01:27:46;;;;;;;15.97;7.23;;;7.00;99.90;;;;;;5015995;28;20457;-91
2021/12/13 01:30:16;;;;;;;9.87;7.77;;;7.00;99.90;;;;;;5016019;28;20449;-90
2021/12/13 01:32:45;;;;;;;9.90;8.87;;;6.90;99.90;;;;;;5014248;28;20450;-90
2021/12/13 01:35:18;;;;;;;9.70;8.03;;;7.00;99.90;;;;;;5031865;28;20431;-90
2021/12/13 01:37:51;;;;;;;10.03;8.93;;;7.00;99.90;;;;;;5013928;28;20700;-89
2021/12/13 01:40:20;;;;;;;11.40;10.20;;;7.00;99.90;;;;;;5014227;28;20989;-90
2021/12/13 01:42:57;;;;;;;12.07;9.83;;;7.00;99.90;;;;;;5016818;28;20449;-90
2021/12/13 01:45:26;;;;;;;16.10;9.63;;;6.90;99.90;;;;;;5015251;28;20454;-90
2021/12/13 01:47:55;;;;;;;11.53;10.37;;;6.90;99.90;;;;;;5014113;28;20470;-90
2021/12/13 01:50:25;;;;;;;12.70;9.43;;;6.90;99.90;;;;;;5017036;28;20442;-91
2021/12/13 01:52:54;;;;;;;11.90;10.70;;;6.90;99.90;;;;;;5014322;28;20453;-90
2021/12/13 01:55:26;;;;;;;11.20;10.10;;;6.90;99.90;;;;;;5009954;28;20449;-90
2021/12/13 01:58:18;;;;;;;12.57;9.83;;;6.80;99.90;;;;;;5014124;28;20470;-90
2021/12/13 02:01:09;;;;;;;10.93;8.70;;;6.80;99.90;;;;;;5015265;28;20485;-90
2021/12/13 02:03:46;;;;;;;13.50;8.97;;;6.90;99.90;;;;;;5013564;28;20494;-90
2021/12/13 02:06:15;;;;;;;13.47;9.43;;;6.80;99.90;;;;;;5029270;28;20453;-88
2021/12/13 02:08:43;;;;;;;11.87;8.87;;;6.80;99.90;;;;;;5032654;28;20457;-89
2021/12/13 02:11:10;;;;;;;14.90;10.50;;;6.80;99.90;;;;;;5017722;28;20430;-90
2021/12/13 02:13:43;;;;;;;13.60;9.90;;;6.80;99.90;;;;;;5013664;28;20453;-90
2021/12/13 02:18:59;;;;;;;16.77;10.57;;;6.80;99.90;;;;;;5023338;28;20465;-90
2021/12/13 02:21:31;;;;;;;14.13;10.63;;;6.70;99.90;;;;;;5025225;28;20473;-90
2021/12/13 02:24:02;;;;;;;13.73;11.00;;;6.70;99.90;;;;;;5016113;28;20454;-90
2021/12/13 02:26:30;;;;;;;19.67;11.53;;;6.70;99.90;;;;;;5012692;28;20449;-89
2021/12/13 02:29:05;;;;;;;13.13;10.67;;;6.60;99.90;;;;;;5023179;28;20442;-88
2021/12/13 02:31:35;;;;;;;15.63;10.80;;;6.60;99.90;;;;;;5021729;28;20505;-90
2021/12/13 02:34:05;;;;;;;13.10;10.40;;;6.60;99.90;;;;;;5013000;28;20438;-90
2021/12/13 02:36:35;;;;;;;17.80;12.13;;;6.60;99.90;;;;;;5013334;28;20773;-89
2021/12/13 02:39:08;;;;;;;13.53;10.83;;;6.60;99.90;;;;;;5014846;28;20455;-90
2021/12/13 02:41:36;;;;;;;14.37;10.80;;;6.70;99.90;;;;;;5022509;28;20490;-90
2021/12/13 02:44:10;;;;;;;18.30;11.00;;;6.60;99.90;;;;;;5031779;28;20457;-90
2021/12/13 02:46:38;;;;;;;12.10;10.47;;;6.60;99.90;;;;;;5035213;28;20438;-90
2021/12/13 02:49:09;;;;;;;14.00;9.80;;;6.70;99.90;;;;;;5027433;28;20446;-90
2021/12/13 02:51:40;;;;;;;16.13;9.37;;;6.70;99.90;;;;;;5011992;28;20443;-90
2021/12/13 02:54:13;;;;;;;12.63;9.70;;;6.60;99.90;;;;;;5013156;28;20426;-90
2021/12/13 02:56:45;;;;;;;14.70;9.67;;;6.60;99.90;;;;;;5013252;28;20446;-90
2021/12/13 02:59:12;;;;;;;12.17;9.10;;;6.60;99.90;;;;;;5012284;28;20815;-89
2021/12/13 03:01:43;;;;;;;13.60;9.00;;;6.60;99.90;;;;;;5014753;28;20478;-89
2021/12/13 03:04:13;;;;;;;15.63;9.90;;;6.70;99.90;;;;;;5012164;28;20442;-89
2021/12/13 03:06:44;;;;;;;12.70;9.30;;;6.70;99.90;;;;;;5012102;28;20807;-89
2021/12/13 03:09:16;;;;;;;16.70;8.93;;;6.70;99.90;;;;;;5014255;28;20426;-90
2021/12/13 03:11:45;;;;;;;11.70;8.20;;;6.70;99.90;;;;;;5011598;28;20454;-90
2021/12/13 03:14:14;;;;;;;14.30;9.97;;;6.70;99.90;;;;;;5025413;28;20461;-87
2021/12/13 03:16:46;;;;;;;11.03;9.30;;;6.70;99.90;;;;;;5038487;28;20457;-87
2021/12/13 03:19:24;;;;;;;11.80;9.47;;;6.70;99.90;;;;;;5029808;28;20437;-89
2021/12/13 03:22:33;;;;;;;18.60;11.23;;;6.80;99.90;;;;;;5036573;28;20481;-87
2021/12/13 03:25:10;;;;;;;16.70;9.97;;;6.80;99.90;;;;;;4975027;28;20435;-87
2021/12/13 03:27:52;;;;;;;15.07;9.73;;;6.80;99.90;;;;;;5019144;28;20442;-90
2021/12/13 03:30:22;;;;;;;16.20;10.03;;;6.80;99.90;;;;;;5016468;28;20434;-90
2021/12/13 03:32:55;;;;;;;13.90;10.03;;;6.70;99.90;;;;;;5011332;28;20439;-90
2021/12/13 03:35:27;;;;;;;13.53;10.97;;;6.70;99.90;;;;;;5009420;28;20450;-89
2021/12/13 03:38:01;;;;;;;13.60;10.50;;;6.80;99.90;;;;;;5014312;28;20462;-91
2021/12/13 03:40:32;;;;;;;16.73;11.80;;;6.80;99.90;;;;;;5014482;28;20489;-90
2021/12/13 03:43:03;;;;;;;15.17;11.00;;;6.80;99.90;;;;;;5011702;28;20435;-90
2021/12/13 03:45:33;;;;;;;17.17;11.93;;;6.80;99.90;;;;;;5015387;28;20442;-88
2021/12/13 03:48:04;;;;;;;11.93;10.70;;;6.90;99.90;;;;;;5025168;28;20465;-90
2021/12/13 03:50:34;;;;;;;16.70;11.77;;;6.80;99.90;;;;;;5011123;28;20442;-90
2021/12/13 03:53:07;;;;;;;15.90;11.13;;;6.90;99.90;;;;;;5015649;28;20435;-88
2021/12/13 03:55:37;;;;;;;19.33;11.87;;;6.90;99.90;;;;;;5022565;28;20442;-90
2021/12/13 03:58:08;;;;;;;15.80;11.23;;;6.90;99.90;;;;;;5011860;28;20486;-90
2021/12/13 04:00:38;;;;;;;16.73;11.23;;;7.00;99.90;;;;;;5023636;28;20474;-91
2021/12/13 04:03:09;;;;;;;14.00;11.73;;;7.00;99.90;;;;;;5011936;28;20442;-91
2021/12/13 04:05:36;;;;;;;16.33;10.07;;;7.00;99.90;;;;;;5009841;28;20446;-91
2021/12/13 04:08:08;;;;;;;18.20;12.10;;;6.90;99.90;;;;;;5010283;28;20489;-89
2021/12/13 04:10:39;;;;;;;14.47;11.67;;;6.90;99.90;;;;;;5011546;28;20450;-89
2021/12/13 04:13:13;;;;;;;16.80;12.33;;;6.90;99.90;;;;;;5009416;28;20525;-90
2021/12/13 04:15:55;;;;;;;15.20;12.53;;;7.00;99.90;;;;;;5009983;28;20446;-90
2021/12/13 04:18:40;;;;;;;16.73;12.17;;;7.00;99.90;;;;;;5010892;28;20466;-90
2021/12/13 04:21:07;;;;;;;19.67;13.20;;;7.00;99.90;;;;;;5011324;28;20474;-90
2021/12/13 04:23:35;;;;;;;18.47;12.90;;;7.00;99.90;;;;;;5011249;28;20457;-90
2021/12/13 04:26:07;;;;;;;17.23;11.57;;;7.10;99.90;;;;;;5009427;28;20439;-90
2021/12/13 04:28:39;;;;;;;13.30;11.23;;;7.10;99.90;;;;;;5010759;28;20457;-90
2021/12/13 04:31:11;;;;;;;17.40;12.70;;;7.10;99.90;;;;;;5015852;28;20447;-90
2021/12/13 04:33:41;;;;;;;16.00;11.87;;;7.10;99.90;;;;;;5035898;28;20426;-90
2021/12/13 04:36:12;;;;;;;14.73;10.97;;;7.10;99.90;;;;;;5036876;28;20446;-90
2021/12/13 04:38:50;;;;;;;17.33;11.80;;;7.20;99.90;;;;;;5017752;28;20461;-91
2021/12/13 04:41:24;;;;;;;15.20;11.93;;;7.10;99.90;;;;;;5010467;28;20478;-90
2021/12/13 04:43:56;;;;;;;13.50;12.00;;;7.20;99.90;;;;;;5010455;28;20449;-90
2021/12/13 04:46:27;;;;;;;18.77;12.50;;;7.10;99.90;;;;;;5010579;28;20450;-90
2021/12/13 04:48:58;;;;;;;19.40;12.67;;;7.10;99.90;;;;;;5011641;28;20481;-90
2021/12/13 04:51:28;;;;;;;20.13;13.70;;;7.20;99.90;;;;;;5012852;28;20446;-90
2021/12/13 04:53:59;;;;;;;15.27;11.43;;;7.20;99.90;;;;;;5013136;28;20465;-88
2021/12/13 04:56:29;;;;;;;17.77;11.77;;;7.20;99.90;;;;;;5022558;28;20981;-90
2021/12/13 04:58:59;;;;;;;16.47;11.90;;;7.20;99.90;;;;;;5012895;28;20477;-91
2021/12/13 05:01:27;;;;;;;16.57;13.53;;;7.30;99.90;;;;;;5012147;28;20489;-87
2021/12/13 05:03:57;;;;;;;15.70;11.40;;;7.30;99.90;;;;;;5010891;28;20461;-87
2021/12/13 05:06:27;;;;;;;20.90;13.60;;;7.30;99.90;;;;;;5019632;28;20441;-87
2021/12/13 05:08:56;;;;;;;18.37;12.70;;;7.30;99.90;;;;;;5019493;28;20461;-88
2021/12/13 05:11:28;;;;;;;18.73;13.37;;;7.30;99.90;;;;;;5011551;28;20534;-90
2021/12/13 05:13:58;;;;;;;14.23;12.50;;;7.30;99.90;;;;;;5017469;28;20977;-89
2021/12/13 05:16:29;;;;;;;22.90;12.80;;;7.40;99.90;;;;;;5016440;28;20829;-92
2021/12/13 05:18:58;;;;;;;16.13;12.60;;;7.40;99.90;;;;;;5011979;28;20476;-91
2021/12/13 05:21:28;;;;;;;17.20;13.67;;;7.40;99.90;;;;;;5021274;28;20466;-91
2021/12/13 05:23:59;;;;;;;18.97;13.80;;;7.20;99.90;;;;;;5019697;28;20450;-91
2021/12/13 05:26:33;;;;;;;15.67;12.47;;;7.30;99.90;;;;;;5015549;28;20485;-91
2021/12/13 05:29:04;;;;;;;14.90;12.20;;;7.40;99.90;;;;;;5010209;28;20886;-91
2021/12/13 05:31:32;;;;;;;22.63;13.53;;;7.40;99.90;;;;;;4996717;28;20519;-90
2021/12/13 05:34:01;;;;;;;16.07;12.60;;;7.40;99.90;;;;;;5017095;28;20545;-91
2021/12/13 05:36:33;;;;;;;21.43;13.27;;;7.40;99.90;;;;;;5018554;28;20469;-91
2021/12/13 05:39:09;;;;;;;16.33;13.13;;;7.40;99.90;;;;;;5026400;28;20456;-92
2021/12/13 05:41:37;;;;;;;16.73;13.53;;;7.30;99.90;;;;;;5033845;28;20550;-91
2021/12/13 05:44:09;;;;;;;25.87;13.80;;;7.40;99.90;;;;;;5000038;28;20830;-91
2021/12/13 05:46:39;;;;;;;15.60;13.80;;;7.40;99.90;;;;;;5015423;28;20458;-90
2021/12/13 05:49:20;;;;;;;17.97;13.23;;;7.40;99.90;;;;;;5025297;28;20458;-91
2021/12/13 05:51:50;;;;;;;20.33;13.33;;;7.40;99.90;;;;;;4996497;28;20545;-91
2021/12/13 05:54:24;;;;;;;20.43;15.13;;;7.40;99.90;;;;;;4994507;28;20562;-91
2021/12/13 05:56:57;;;;;;;23.30;15.00;;;7.40;99.90;;;;;;5009132;28;20465;-91
2021/12/13 05:59:28;;;;;;;20.30;15.03;;;7.40;99.90;;;;;;5015937;28;20460;-91
2021/12/13 06:02:12;;;;;;;22.20;14.83;;;7.40;99.90;;;;;;5004124;28;20474;-91
2021/12/13 06:04:43;;;;;;;14.93;13.07;;;7.40;99.90;;;;;;5014073;28;20456;-91
2021/12/13 06:07:23;;;;;;;21.57;15.13;;;7.40;99.90;;;;;;5018126;28;20862;-91
2021/12/13 06:09:57;;;;;;;21.70;13.83;;;7.40;99.90;;;;;;5011035;28;20477;-92
2021/12/13 06:12:29;;;;;;;23.33;15.00;;;7.40;99.90;;;;;;5013886;28;20779;-91
2021/12/13 06:15:03;;;;;;;19.70;14.70;;;7.30;99.90;;;;;;5010441;28;20461;-91
2021/12/13 06:17:32;;;;;;;18.57;14.90;;;7.30;99.90;;;;;;5013983;28;20457;-89
2021/12/13 06:20:05;;;;;;;21.50;15.10;;;7.30;99.90;;;;;;5023901;28;20481;-90
2021/12/13 06:22:34;;;;;;;24.17;15.37;;;7.20;99.90;;;;;;5033053;28;20478;-89
2021/12/13 06:25:06;;;;;;;24.20;15.10;;;7.30;99.90;;;;;;5033402;28;20513;-87
2021/12/13 06:27:42;;;;;;;21.43;14.67;;;7.30;99.90;;;;;;5037361;28;20462;-89
2021/12/13 06:30:19;;;;;;;21.80;16.70;;;7.30;99.90;;;;;;5027258;28;20457;-89
2021/12/13 06:32:53;;;;;;;24.17;18.27;;;7.30;99.90;;;;;;5016534;28;20450;-89
2021/12/13 06:35:40;;;;;;;21.73;15.17;;;7.30;99.90;;;;;;5029455;28;20454;-87
2021/12/13 06:38:38;;;;;;;20.67;15.37;;;7.30;99.90;;;;;;5015839;28;20518;-90
2021/12/13 06:41:18;;;;;;;18.07;14.13;;;7.30;99.90;;;;;;5012400;28;20461;-90
2021/12/13 06:43:48;;;;;;;19.73;16.07;;;7.30;99.90;;;;;;5014503;28;20456;-89
2021/12/13 06:46:43;;;;;;;19.23;15.97;;;7.30;99.90;;;;;;5014071;28;20533;-89
2021/12/13 06:49:15;;;;;;;20.97;15.30;;;7.30;99.90;;;;;;5020528;28;20470;-88
2021/12/13 06:51:47;;;;;;;19.40;16.33;;;7.30;99.90;;;;;;5032417;28;20444;-89
2021/12/13 06:54:18;;;;;;;23.20;17.20;;;7.30;99.90;;;;;;5033175;28;20450;-87
2021/12/13 06:56:51;;;;;;;21.10;16.67;;;7.30;99.90;;;;;;5021759;28;20579;-90
2021/12/13 06:59:19;;;;;;;29.73;17.63;;;7.30;99.90;;;;;;5028342;28;20443;-86
2021/12/13 07:02:01;;;;;;;22.07;17.37;;;7.30;99.90;;;;;;5030371;28;20479;-88
2021/12/13 07:04:36;;;;;;;26.37;17.93;;;7.30;99.90;;;;;;5031097;28;20442;-90
2021/12/13 07:07:10;;;;;;;25.60;17.90;;;7.30;99.90;;;;;;5015959;28;20475;-90
2021/12/13 07:09:38;;;;;;;22.83;15.50;;;7.40;99.90;;;;;;5018754;28;20442;-91
2021/12/13 07:12:14;;;;;;;20.87;17.70;;;7.40;99.90;;;;;;5016562;28;21152;-90
2021/12/13 07:14:42;;;;;;;23.87;19.00;;;7.40;99.90;;;;;;5018199;28;20430;-90
2021/12/13 07:17:15;;;;;;;21.87;18.67;;;7.40;99.90;;;;;;5012356;28;20490;-90
2021/12/13 07:19:44;;;;;;;25.40;19.13;;;7.40;99.90;;;;;;5013198;28;20442;-90
2021/12/13 07:22:16;;;;;;;20.27;16.77;;;7.50;99.90;;;;;;5018310;28;20497;-90
2021/12/13 07:24:46;;;;;;;21.53;16.40;;;7.50;99.90;;;;;;5018295;28;20450;-88
2021/12/13 07:27:16;;;;;;;22.73;16.60;;;7.50;99.90;;;;;;5018987;28;20474;-89
2021/12/13 07:29:46;;;;;;;22.87;16.70;;;7.50;99.90;;;;;;5026839;28;20449;-88
2021/12/13 07:32:19;;;;;;;21.20;15.57;;;7.60;99.90;;;;;;5027226;28;20939;-88
2021/12/13 07:35:04;;;;;;;18.27;15.70;;;7.60;99.90;;;;;;5019455;28;20958;-89
2021/12/13 07:37:43;;;;;;;23.10;16.37;;;7.60;99.90;;;;;;5017332;28;20466;-88
2021/12/13 07:40:22;;;;;;;18.80;15.50;;;7.60;99.90;;;;;;5023118;28;20449;-89
2021/12/13 07:42:56;;;;;;;48.23;34.87;;;7.60;99.90;;;;;;5037910;28;20504;-87
2021/12/13 07:45:27;;;;;;;24.50;17.20;;;7.60;99.90;;;;;;5025202;28;20442;-88
2021/12/13 07:47:57;;;;;;;22.20;15.43;;;7.70;99.90;;;;;;4999301;28;20474;-90
2021/12/13 07:50:24;;;;;;;23.07;16.07;;;7.70;99.90;;;;;;5007497;28;20453;-90
2021/12/13 07:52:56;;;;;;;23.57;17.07;;;7.80;99.90;;;;;;5019010;28;20454;-88
2021/12/13 07:55:29;;;;;;;19.63;15.00;;;7.70;99.90;;;;;;5018109;28;20454;-89
2021/12/13 07:57:59;;;;;;;20.83;16.50;;;7.70;99.90;;;;;;5020073;28;20474;-90
2021/12/13 08:00:29;;;;;;;22.60;16.60;;;7.80;99.90;;;;;;5017916;28;20959;-88
2021/12/13 08:03:00;;;;;;;23.17;17.13;;;7.80;99.90;;;;;;5017231;28;20482;-88
2021/12/13 08:05:30;;;;;;;24.13;17.37;;;7.90;99.90;;;;;;5017709;28;20461;-90
2021/12/13 08:08:00;;;;;;;29.17;18.40;;;7.90;99.90;;;;;;5032771;28;20466;-87
2021/12/13 08:10:33;;;;;;;23.17;17.23;;;7.90;99.90;;;;;;5038102;28;20522;-87
2021/12/13 08:13:03;;;;;;;24.17;16.80;;;7.90;99.90;;;;;;5020188;28;20451;-90
2021/12/13 08:15:36;;;;;;;22.20;18.40;;;7.90;99.90;;;;;;5019087;28;20481;-89
2021/12/13 08:18:08;;;;;;;26.43;18.50;;;7.90;99.90;;;;;;5037137;28;20476;-88
2021/12/13 08:20:41;;;;;;;23.40;18.57;;;7.90;99.90;;;;;;5025363;28;20450;-88
2021/12/13 08:23:15;;;;;;;18.40;15.70;;;7.90;99.90;;;;;;5018033;28;20994;-89
2021/12/13 08:25:43;;;;;;;19.77;15.50;;;8.00;99.90;;;;;;5016346;28;20450;-88
2021/12/13 08:28:12;;;;;;;20.97;17.60;;;8.00;99.90;;;;;;5015146;28;20474;-89
2021/12/13 08:30:45;;;;;;;22.30;18.67;;;8.10;99.90;;;;;;5015379;28;20442;-89
2021/12/13 08:33:17;;;;;;;21.77;16.10;;;8.10;99.90;;;;;;5015838;28;20812;-89
2021/12/13 08:35:56;;;;;;;21.40;17.10;;;8.10;99.90;;;;;;5017405;28;20458;-90
2021/12/13 08:38:34;;;;;;;23.87;16.80;;;8.20;99.90;;;;;;5016142;28;20480;-89
2021/12/13 08:41:07;;;;;;;21.87;16.20;;;8.20;99.90;;;;;;5019834;28;20458;-87
2021/12/13 08:43:39;;;;;;;25.70;17.23;;;8.30;99.90;;;;;;5013404;28;20489;-87
2021/12/13 08:46:07;;;;;;;22.20;16.70;;;8.40;99.90;;;;;;5013511;28;20526;-87
2021/12/13 08:48:46;;;;;;;26.30;17.53;;;8.50;99.90;;;;;;5012808;28;20474;-87
2021/12/13 08:51:20;;;;;;;21.40;16.33;;;8.50;99.90;;;;;;5015233;28;20465;-87
2021/12/13 08:54:01;;;;;;;27.07;17.67;;;8.50;99.90;;;;;;5018320;28;20449;-88
2021/12/13 08:56:30;;;;;;;22.03;18.40;;;8.40;99.90;;;;;;5022559;28;20458;-87
2021/12/13 08:59:03;;;;;;;22.73;17.93;;;8.40;99.90;;;;;;5017374;28;21318;-88
2021/12/13 09:01:41;;;;;;;26.87;18.43;;;8.50;99.90;;;;;;5017500;28;20534;-88
2021/12/13 09:04:10;;;;;;;28.50;20.63;;;8.40;99.90;;;;;;5016986;28;20446;-89
2021/12/13 09:06:37;;;;;;;22.73;17.13;;;8.40;99.90;;;;;;5014889;28;20481;-87
2021/12/13 09:09:12;;;;;;;23.10;18.33;;;8.40;99.90;;;;;;5016217;28;20476;-86
2021/12/13 09:11:44;;;;;;;28.07;19.37;;;8.40;99.90;;;;;;5017979;28;20527;-87
2021/12/13 09:14:19;;;;;;;26.13;18.30;;;8.40;99.90;;;;;;5020455;28;20442;-87
2021/12/13 09:17:07;;;;;;;24.40;18.93;;;8.40;99.90;;;;;;5025359;28;20445;-88
2021/12/13 09:19:41;;;;;;;25.07;19.60;;;8.50;99.90;;;;;;5016906;28;20454;-89
2021/12/13 09:22:12;;;;;;;27.70;18.80;;;8.60;99.90;;;;;;5020163;28;20482;-87
2021/12/13 09:24:43;;;;;;;23.57;18.00;;;8.60;99.90;;;;;;5026939;28;20442;-89
2021/12/13 09:27:23;;;;;;;26.63;18.20;;;8.60;99.90;;;;;;5017167;28;21007;-87
2021/12/13 09:29:54;;;;;;;25.13;18.53;;;8.60;99.90;;;;;;5017795;28;20481;-87
2021/12/13 09:32:24;;;;;;;28.33;18.93;;;8.70;99.90;;;;;;5018099;28;20441;-88
2021/12/13 09:35:14;;;;;;;23.10;18.00;;;8.70;99.90;;;;;;5018213;28;20456;-86
2021/12/13 09:37:41;;;;;;;28.73;16.77;;;8.70;99.90;;;;;;5018582;28;20466;-88
2021/12/13 09:40:09;;;;;;;29.23;17.47;;;8.80;99.90;;;;;;5017519;28;20461;-87
2021/12/13 09:42:46;;;;;;;23.30;16.50;;;8.90;99.90;;;;;;5032338;28;20481;-87
2021/12/13 09:45:14;;;;;;;28.53;18.27;;;8.80;99.90;;;;;;5021922;28;20441;-88
2021/12/13 09:47:43;;;;;;;25.37;19.13;;;8.90;99.90;;;;;;5019292;28;20470;-87
2021/12/13 09:50:15;;;;;;;26.93;18.33;;;8.90;99.90;;;;;;5020505;28;20509;-87
2021/12/13 09:52:48;;;;;;;29.90;18.40;;;9.00;99.90;;;;;;5019932;28;20471;-88
2021/12/13 09:55:19;;;;;;;22.30;17.10;;;9.00;99.90;;;;;;5020723;28;20446;-88
2021/12/13 09:57:56;;;;;;;25.47;17.47;;;9.20;99.90;;;;;;5022013;28;21105;-88
2021/12/13 10:00:27;;;;;;;24.67;17.40;;;9.20;99.90;;;;;;5020985;28;20529;-88
2021/12/13 10:02:58;;;;;;;26.27;18.40;;;9.20;99.90;;;;;;5019904;28;20994;-87
2021/12/13 10:05:31;;;;;;;21.30;17.03;;;9.40;99.90;;;;;;5021511;28;20450;-88
2021/12/13 10:08:07;;;;;;;22.10;18.10;;;9.50;99.90;;;;;;5023238;28;20493;-88
2021/12/13 10:10:38;;;;;;;24.47;17.20;;;9.50;99.90;;;;;;5038313;28;20440;-88
2021/12/13 10:13:09;;;;;;;24.17;15.97;;;9.50;99.90;;;;;;5027981;28;20465;-88
2021/12/13 10:15:39;;;;;;;23.17;17.90;;;9.60;99.90;;;;;;5018826;28;20454;-87
2021/12/13 10:18:09;;;;;;;21.97;16.30;;;9.80;99.90;;;;;;5020149;28;20470;-88
2021/12/13 10:20:41;;;;;;;23.67;16.53;;;9.90;99.90;;;;;;5020601;28;20450;-88
2021/12/13 10:23:11;;;;;;;26.40;18.60;;;10.00;99.90;;;;;;5031446;28;20479;-88
2021/12/13 10:25:44;;;;;;;23.60;18.27;;;10.10;99.90;;;;;;5031734;28;20442;-85
2021/12/13 10:28:19;;;;;;;26.80;18.40;;;10.20;99.90;;;;;;5024205;28;20458;-90
2021/12/13 10:30:50;;;;;;;20.07;15.93;;;10.30;99.90;;;;;;5020764;28;20485;-88
2021/12/13 10:33:19;;;;;;;21.67;15.97;;;10.50;99.90;;;;;;5016758;28;20445;-87
2021/12/13 10:35:49;;;;;;;25.63;16.30;;;10.40;99.90;;;;;;5017387;28;20447;-88
2021/12/13 10:38:19;;;;;;;20.80;15.00;;;10.20;99.90;;;;;;5017549;28;20466;-88
2021/12/13 10:40:50;;;;;;;23.73;17.20;;;10.30;99.90;;;;;;5019785;28;20458;-87
2021/12/13 10:43:20;;;;;;;22.40;15.17;;;10.50;99.90;;;;;;5024164;28;20520;-87
2021/12/13 10:45:53;;;;;;;19.83;15.30;;;10.40;99.90;;;;;;5019030;28;20449;-88
2021/12/13 10:48:22;;;;;;;24.90;15.17;;;10.20;99.90;;;;;;5019283;28;20469;-88
2021/12/13 10:50:55;;;;;;;21.30;15.57;;;10.20;99.90;;;;;;5018298;28;20477;-88
2021/12/13 10:53:24;;;;;;;23.67;14.70;;;10.10;99.90;;;;;;5018045;28;20442;-88
2021/12/13 10:55:58;;;;;;;21.83;16.30;;;9.90;99.90;;;;;;5019938;28;20469;-88
2021/12/13 10:58:30;;;;;;;16.60;14.43;;;10.00;99.90;;;;;;5018346;28;20478;-86
2021/12/13 11:01:01;;;;;;;21.27;16.23;;;10.20;99.90;;;;;;5018832;28;20454;-88
2021/12/13 11:03:31;;;;;;;18.20;15.03;;;10.40;99.90;;;;;;5019569;28;20493;-88
2021/12/13 11:06:00;;;;;;;23.33;15.57;;;10.60;99.90;;;;;;5020038;28;20473;-88
2021/12/13 11:08:29;;;;;;;18.13;15.57;;;10.90;99.90;;;;;;5020131;28;20470;-89
2021/12/13 11:11:00;;;;;;;20.13;14.13;;;10.90;99.90;;;;;;5019867;28;20454;-88
2021/12/13 11:13:31;;;;;;;18.40;14.20;;;10.80;99.90;;;;;;5008137;28;20465;-87
2021/12/13 11:16:03;;;;;;;23.10;15.93;;;11.00;99.90;;;;;;5033294;28;20464;-88
2021/12/13 11:18:30;;;;;;;20.70;14.27;;;11.10;99.90;;;;;;5018387;28;20471;-88
2021/12/13 11:21:07;;;;;;;21.93;15.63;;;11.30;99.90;;;;;;5018382;28;20539;-90
2021/12/13 11:23:34;;;;;;;18.27;13.30;;;11.50;99.90;;;;;;5017701;28;20481;-89
2021/12/13 11:26:06;;;;;;;23.60;14.67;;;11.50;99.90;;;;;;5019890;28;20890;-90
2021/12/13 11:28:35;;;;;;;16.20;14.50;;;11.50;99.90;;;;;;5017856;28;20466;-89
2021/12/13 11:31:09;;;;;;;24.33;16.10;;;11.60;99.90;;;;;;5019897;28;20554;-88
2021/12/13 11:34:08;;;;;;;22.00;16.13;;;11.50;99.90;;;;;;5037137;28;20513;-85
2021/12/13 11:36:50;;;;;;;17.93;14.03;;;11.30;99.90;;;;;;5019592;28;20438;-87
2021/12/13 11:39:49;;;;;;;18.03;15.30;;;11.30;99.90;;;;;;5031916;28;20446;-87
2021/12/13 11:42:44;;;;;;;20.60;15.50;;;11.30;99.90;;;;;;5029235;28;20457;-87
2021/12/13 11:45:38;;;;;;;18.23;14.10;;;11.50;99.90;;;;;;5017338;28;20442;-88
2021/12/13 11:49:08;;;;;;;19.67;16.37;;;11.60;99.90;;;;;;5017786;28;20504;-88
2021/12/13 11:52:10;;;;;;;22.07;15.03;;;11.60;99.90;;;;;;4967600;28;20889;-88
2021/12/13 11:55:11;;;;;;;18.60;14.23;;;11.70;99.90;;;;;;4965660;28;20889;-88
2021/12/13 11:58:14;;;;;;;18.07;13.77;;;11.70;99.90;;;;;;4998953;28;20852;-88
2021/12/13 12:00:49;;;;;;;20.30;14.87;;;11.50;99.90;;;;;;5010453;28;20450;-88
2021/12/13 12:03:52;;;;;;;17.73;14.17;;;11.60;99.90;;;;;;5027689;28;20489;-87
2021/12/13 12:07:01;;;;;;;17.57;14.33;;;11.70;99.90;;;;;;5015212;28;20458;-87
2021/12/13 12:10:13;;;;;;;18.03;14.23;;;11.80;99.90;;;;;;5019687;28;20798;-87
2021/12/13 12:12:58;;;;;;;19.70;12.33;;;11.70;99.90;;;;;;5017536;28;20510;-89
2021/12/13 12:15:27;;;;;;;14.93;12.77;;;11.70;99.90;;;;;;5023173;28;20450;-86
2021/12/13 12:17:55;;;;;;;16.30;11.80;;;11.80;99.90;;;;;;5020238;28;20554;-88
2021/12/13 12:20:27;;;;;;;18.43;13.43;;;11.80;99.90;;;;;;5019434;28;20494;-89
2021/12/13 12:22:56;;;;;;;13.07;11.67;;;11.80;99.90;;;;;;5022633;28;20486;-89
2021/12/13 12:25:27;;;;;;;15.63;10.80;;;11.80;99.90;;;;;;5021499;28;20945;-87
2021/12/13 12:27:58;;;;;;;13.40;10.50;;;11.70;99.90;;;;;;5020387;28;20473;-88
2021/12/13 12:30:28;;;;;;;14.37;12.87;;;11.70;99.90;;;;;;5019648;28;21010;-89
2021/12/13 12:32:58;;;;;;;13.00;11.50;;;11.70;99.90;;;;;;5020077;28;20469;-88
2021/12/13 12:35:27;;;;;;;11.37;9.43;;;11.50;99.90;;;;;;5018487;28;20482;-88
2021/12/13 12:38:24;;;;;;;12.10;10.20;;;11.50;99.90;;;;;;5017583;28;20470;-89
2021/12/13 12:41:22;;;;;;;13.73;9.27;;;11.50;99.90;;;;;;5018904;28;21016;-88
2021/12/13 12:43:53;;;;;;;9.87;8.10;;;11.40;99.90;;;;;;5018300;28;20561;-88
2021/12/13 12:46:23;;;;;;;9.33;7.70;;;11.10;99.90;;;;;;5017329;28;21018;-88
2021/12/13 12:48:52;;;;;;;9.10;8.20;;;10.70;99.90;;;;;;5016635;28;20476;-88
2021/12/13 12:51:21;;;;;;;8.73;7.90;;;10.60;99.90;;;;;;5018018;28;20454;-89
2021/12/13 12:53:51;;;;;;;9.50;7.57;;;10.40;99.90;;;;;;5017394;28;20446;-89
2021/12/13 12:56:26;;;;;;;8.73;7.93;;;10.20;99.90;;;;;;5016667;28;20978;-89
2021/12/13 12:59:02;;;;;;;9.37;7.77;;;10.30;99.90;;;;;;5014104;28;20477;-89
2021/12/13 13:01:33;;;;;;;7.80;7.00;;;10.30;99.90;;;;;;5014007;28;20461;-90
2021/12/13 13:04:11;;;;;;;7.73;6.73;;;10.30;99.90;;;;;;5021149;28;20493;-86
2021/12/13 13:06:50;;;;;;;7.83;7.03;;;10.40;99.90;;;;;;5018622;28;20907;-89
2021/12/13 13:09:17;;;;;;;9.37;8.37;;;10.50;99.90;;;;;;5013334;28;20456;-89
2021/12/13 13:11:49;;;;;;;9.57;7.60;;;10.40;99.90;;;;;;5013029;28;20450;-89
2021/12/13 13:14:19;;;;;;;10.73;9.63;;;10.50;99.90;;;;;;5013339;28;20445;-89
2021/12/13 13:16:48;;;;;;;9.33;8.33;;;10.30;99.90;;;;;;5019274;28;20455;-88